createdAt,value
2017-06-14T00:01:48.378Z,101717
2017-06-14T00:04:17.355Z,101711
2017-06-14T00:06:45.509Z,101719
2017-06-14T00:09:13.672Z,101715
2017-06-14T00:11:41.844Z,101712
2017-06-14T00:14:10.022Z,101714
2017-06-14T00:16:38.197Z,101703
2017-06-14T00:19:06.597Z,101713
2017-06-14T00:21:34.750Z,101711
2017-06-14T00:24:02.923Z,101721
2017-06-14T00:26:31.127Z,101711
2017-06-14T00:28:59.274Z,101713
2017-06-14T00:31:27.438Z,101713
2017-06-14T00:33:55.622Z,101710
2017-06-14T00:36:23.811Z,101704
2017-06-14T00:38:51.985Z,101701
2017-06-14T00:41:20.173Z,101707
2017-06-14T00:43:48.347Z,101695
2017-06-14T00:46:16.518Z,101700
2017-06-14T00:48:44.694Z,101701
2017-06-14T00:51:12.865Z,101710
2017-06-14T00:53:41.035Z,101705
2017-06-14T00:56:09.241Z,101707
2017-06-14T00:58:38.184Z,101706
2017-06-14T01:01:06.340Z,101704
2017-06-14T01:03:34.639Z,101709
2017-06-14T01:06:02.806Z,101709
2017-06-14T01:08:30.975Z,101710
2017-06-14T01:10:59.522Z,101711
2017-06-14T01:13:28.438Z,101709
2017-06-14T01:15:56.590Z,101716
2017-06-14T01:18:25.533Z,101705
2017-06-14T01:20:53.686Z,101707
2017-06-14T01:23:21.866Z,101705
2017-06-14T01:25:50.068Z,101702
2017-06-14T01:28:18.220Z,101707
2017-06-14T01:30:46.417Z,101712
2017-06-14T01:33:14.589Z,101704
2017-06-14T01:35:42.738Z,101713
2017-06-14T01:38:10.889Z,101711
2017-06-14T01:40:39.834Z,101714
2017-06-14T01:43:07.999Z,101713
2017-06-14T01:45:36.141Z,101709
2017-06-14T01:48:04.339Z,101716
2017-06-14T01:50:32.503Z,101711
2017-06-14T01:53:00.650Z,101708
2017-06-14T01:55:29.605Z,101696
2017-06-14T01:57:57.764Z,101703
2017-06-14T02:00:25.910Z,101707
2017-06-14T02:02:54.084Z,101713
2017-06-14T02:05:22.248Z,101715
2017-06-14T02:07:50.398Z,101715
2017-06-14T02:10:18.597Z,101732
2017-06-14T02:12:46.769Z,101723
2017-06-14T02:15:14.941Z,101724
2017-06-14T02:17:43.149Z,101728
2017-06-14T02:20:11.305Z,101721
2017-06-14T02:22:39.469Z,101725
2017-06-14T02:25:07.667Z,101727
2017-06-14T02:27:35.817Z,101727
2017-06-14T02:30:03.989Z,101729
2017-06-14T02:32:32.952Z,101729
2017-06-14T02:35:01.106Z,101738
2017-06-14T02:37:29.273Z,101733
2017-06-14T02:39:57.476Z,101739
2017-06-14T02:42:25.640Z,101740
2017-06-14T02:44:53.787Z,101746
2017-06-14T02:47:21.980Z,101751
2017-06-14T02:49:50.171Z,101748
2017-06-14T02:52:18.336Z,101752
2017-06-14T02:54:46.946Z,101746
2017-06-14T02:57:15.900Z,101743
2017-06-14T02:59:44.060Z,101748
2017-06-14T03:02:12.267Z,101747
2017-06-14T03:04:40.412Z,101745
2017-06-14T03:07:08.621Z,101746
2017-06-14T03:09:36.812Z,101741
2017-06-14T03:12:05.734Z,101746
2017-06-14T03:14:33.882Z,101742
2017-06-14T03:17:02.859Z,101748
2017-06-14T03:19:31.025Z,101738
2017-06-14T03:21:59.177Z,101738
2017-06-14T03:24:27.381Z,101743
2017-06-14T03:26:55.535Z,101747
2017-06-14T03:29:23.697Z,101744
2017-06-14T03:31:51.882Z,101740
2017-06-14T03:34:20.030Z,101746
2017-06-14T03:36:48.205Z,101744
2017-06-14T03:39:16.383Z,101740
2017-06-14T03:41:44.555Z,101751
2017-06-14T03:44:12.697Z,101748
2017-06-14T03:46:41.650Z,101744
2017-06-14T03:49:09.799Z,101745
2017-06-14T03:51:37.959Z,101747
2017-06-14T03:54:06.138Z,101738
2017-06-14T03:56:34.316Z,101737
2017-06-14T03:59:02.493Z,101744
2017-06-14T04:01:30.684Z,101741
2017-06-14T04:03:58.848Z,101743
2017-06-14T04:06:26.999Z,101750
2017-06-14T04:08:56.043Z,101761
2017-06-14T04:11:24.214Z,101761
2017-06-14T04:13:52.361Z,101765
2017-06-14T04:16:20.578Z,101778
2017-06-14T04:18:48.722Z,101774
2017-06-14T04:21:16.888Z,101780
2017-06-14T04:23:45.067Z,101780
2017-06-14T04:26:13.230Z,101777
2017-06-14T04:28:41.396Z,101777
2017-06-14T04:31:09.613Z,101785
2017-06-14T04:33:37.754Z,101787
2017-06-14T04:36:05.925Z,101782
2017-06-14T04:38:34.125Z,101792
2017-06-14T04:41:02.270Z,101785
2017-06-14T04:43:30.436Z,101785
2017-06-14T04:45:58.624Z,101781
2017-06-14T04:48:26.794Z,101785
2017-06-14T04:50:54.961Z,101792
2017-06-14T04:53:23.137Z,101799
2017-06-14T04:55:51.304Z,101796
2017-06-14T04:58:19.510Z,101783
2017-06-14T05:00:47.702Z,101784
2017-06-14T05:03:15.871Z,101789
2017-06-14T05:05:44.040Z,101787
2017-06-14T05:08:12.237Z,101783
2017-06-14T05:10:40.408Z,101782
2017-06-14T05:13:08.571Z,101784
2017-06-14T05:15:36.766Z,101783
2017-06-14T05:18:04.912Z,101785
2017-06-14T05:20:33.061Z,101789
2017-06-14T05:23:01.241Z,101790
2017-06-14T05:25:29.418Z,101786
2017-06-14T05:27:57.592Z,101789
2017-06-14T05:30:25.785Z,101783
2017-06-14T05:32:53.933Z,101791
2017-06-14T05:35:22.086Z,101782
2017-06-14T05:37:51.066Z,101791
2017-06-14T05:40:19.219Z,101779
2017-06-14T05:42:47.368Z,101786
2017-06-14T05:45:15.573Z,101794
2017-06-14T05:47:43.726Z,101795
2017-06-14T05:50:11.877Z,101797
2017-06-14T05:52:40.131Z,101796
2017-06-14T05:55:09.079Z,101807
2017-06-14T05:57:37.225Z,101797
2017-06-14T06:00:05.931Z,101794
2017-06-14T06:02:34.160Z,101808
2017-06-14T06:05:03.089Z,101806
2017-06-14T06:07:31.293Z,101808
2017-06-14T06:10:00.964Z,101808
2017-06-14T06:12:29.258Z,101815
2017-06-14T06:14:57.463Z,101809
2017-06-14T06:17:25.765Z,101806
2017-06-14T06:19:54.005Z,101805
2017-06-14T06:22:22.297Z,101801
2017-06-14T06:24:51.291Z,101811
2017-06-14T06:27:19.517Z,101807
2017-06-14T06:29:47.698Z,101799
2017-06-14T06:32:15.868Z,101789
2017-06-14T06:34:44.019Z,101796
2017-06-14T06:37:12.199Z,101801
2017-06-14T06:39:40.342Z,101810
2017-06-14T06:42:09.509Z,101808
2017-06-14T06:44:38.011Z,101817
2017-06-14T06:47:07.151Z,101804
2017-06-14T06:49:36.578Z,101800
2017-06-14T06:52:05.671Z,101810
2017-06-14T06:54:34.172Z,101817
2017-06-14T06:57:02.447Z,101811
2017-06-14T06:59:30.683Z,101808
2017-06-14T07:01:58.904Z,101813
2017-06-14T07:04:27.119Z,101813
2017-06-14T07:06:55.475Z,101809
2017-06-14T07:09:23.678Z,101814
2017-06-14T07:11:51.848Z,101819
2017-06-14T07:14:20.050Z,101821
2017-06-14T07:16:48.966Z,101826
2017-06-14T07:19:17.137Z,101825
2017-06-14T07:21:45.337Z,101841
2017-06-14T07:24:13.504Z,101835
2017-06-14T07:26:41.673Z,101834
2017-06-14T07:29:09.877Z,101840
2017-06-14T07:31:38.049Z,101846
2017-06-14T07:34:06.232Z,101840
2017-06-14T07:36:34.442Z,101826
2017-06-14T07:39:03.377Z,101828
2017-06-14T07:41:31.530Z,101838
2017-06-14T07:43:59.735Z,101820
2017-06-14T07:46:27.896Z,101819
2017-06-14T07:48:56.042Z,101823
2017-06-14T07:51:24.241Z,101827
2017-06-14T07:53:52.410Z,101830
2017-06-14T07:56:20.607Z,101838
2017-06-14T07:58:48.786Z,101837
2017-06-14T08:01:16.934Z,101833
2017-06-14T08:03:45.096Z,101841
2017-06-14T08:06:13.303Z,101831
2017-06-14T08:08:41.459Z,101827
2017-06-14T08:11:09.636Z,101827
2017-06-14T08:13:37.835Z,101819
2017-06-14T08:16:05.991Z,101811
2017-06-14T08:18:34.138Z,101806
2017-06-14T08:21:03.173Z,101810
2017-06-14T08:23:31.319Z,101808
2017-06-14T08:25:59.477Z,101804
2017-06-14T08:28:27.673Z,101807
2017-06-14T08:30:55.828Z,101821
2017-06-14T08:33:24.741Z,101809
2017-06-14T08:35:52.945Z,101814
2017-06-14T08:38:21.166Z,101818
2017-06-14T08:40:49.525Z,101819
2017-06-14T08:43:18.126Z,101820
2017-06-14T08:45:46.837Z,101829
2017-06-14T08:48:15.211Z,101836
2017-06-14T08:50:44.290Z,101834
2017-06-14T08:53:12.530Z,101844
2017-06-14T08:55:41.742Z,101837
2017-06-14T08:58:10.921Z,101843
2017-06-14T09:00:39.288Z,101856
2017-06-14T09:03:07.538Z,101865
2017-06-14T09:05:35.742Z,101871
2017-06-14T09:08:04.475Z,101869
2017-06-14T09:10:33.681Z,101879
2017-06-14T09:13:02.279Z,101865
2017-06-14T09:15:30.609Z,101881
2017-06-14T09:17:58.893Z,101873
2017-06-14T09:20:27.133Z,101878
2017-06-14T09:22:55.355Z,101878
2017-06-14T09:25:23.785Z,101878
2017-06-14T09:27:52.362Z,101891
2017-06-14T09:30:20.645Z,101891
2017-06-14T09:32:48.949Z,101893
2017-06-14T09:35:17.478Z,101885
2017-06-14T09:37:45.801Z,101874
2017-06-14T09:40:14.050Z,101863
2017-06-14T09:42:42.348Z,101870
2017-06-14T09:45:10.636Z,101873
2017-06-14T09:47:38.818Z,101869
2017-06-14T09:50:07.392Z,101872
2017-06-14T09:52:35.817Z,101871
2017-06-14T09:55:03.993Z,101878
2017-06-14T09:57:32.649Z,101857
2017-06-14T10:00:00.950Z,101869
2017-06-14T10:02:29.168Z,101869
2017-06-14T10:04:57.545Z,101871
2017-06-14T10:07:26.464Z,101881
2017-06-14T10:09:54.609Z,101878
2017-06-14T10:12:23.545Z,101860
2017-06-14T10:14:51.702Z,101862
2017-06-14T10:17:20.022Z,101863
2017-06-14T10:19:48.222Z,101862
2017-06-14T10:22:17.201Z,101862
2017-06-14T10:24:45.479Z,101855
2017-06-14T10:27:13.802Z,101855
2017-06-14T10:29:41.989Z,101870
2017-06-14T10:32:10.138Z,101863
2017-06-14T10:34:38.322Z,101860
2017-06-14T10:37:06.484Z,101862
2017-06-14T10:39:34.657Z,101858
2017-06-14T10:42:03.034Z,101850
2017-06-14T10:44:31.421Z,101843
2017-06-14T10:46:59.604Z,101845
2017-06-14T10:49:27.906Z,101853
2017-06-14T10:51:56.177Z,101845
2017-06-14T10:54:24.340Z,101849
2017-06-14T10:56:52.537Z,101849
2017-06-14T10:59:20.681Z,101846
2017-06-14T11:01:48.853Z,101854
2017-06-14T11:04:17.055Z,101850
2017-06-14T11:06:45.209Z,101846
2017-06-14T11:09:13.353Z,101839
2017-06-14T11:11:42.305Z,101848
2017-06-14T11:14:10.470Z,101847
2017-06-14T11:16:38.617Z,101843
2017-06-14T11:19:06.798Z,101847
2017-06-14T11:21:34.957Z,101853
2017-06-14T11:24:03.141Z,101853
2017-06-14T11:26:31.334Z,101848
2017-06-14T11:28:59.494Z,101848
2017-06-14T11:31:27.656Z,101843
2017-06-14T11:33:55.848Z,101863
2017-06-14T11:36:24.009Z,101854
2017-06-14T11:38:52.163Z,101849
2017-06-14T11:41:20.365Z,101850
2017-06-14T11:43:48.510Z,101859
2017-06-14T11:46:16.673Z,101857
2017-06-14T11:48:44.854Z,101856
2017-06-14T11:51:13.035Z,101852
2017-06-14T11:53:41.182Z,101856
2017-06-14T11:56:09.380Z,101848
2017-06-14T11:58:38.312Z,101851
2017-06-14T12:01:06.461Z,101845
2017-06-14T12:03:34.666Z,101849
2017-06-14T12:06:02.820Z,101842
2017-06-14T12:08:30.988Z,101844
2017-06-14T12:10:59.197Z,101850
2017-06-14T12:13:27.368Z,101852
2017-06-14T12:15:55.516Z,101846
2017-06-14T12:18:23.721Z,101848
2017-06-14T12:20:51.896Z,101849
2017-06-14T12:23:20.079Z,101836
2017-06-14T12:25:48.260Z,101833
2017-06-14T12:28:16.406Z,101835
2017-06-14T12:30:44.564Z,101831
2017-06-14T12:33:12.750Z,101822
2017-06-14T12:35:40.925Z,101827
2017-06-14T12:38:09.086Z,101823
2017-06-14T12:40:37.298Z,101830
2017-06-14T12:43:05.481Z,101823
2017-06-14T12:45:33.644Z,101823
2017-06-14T12:48:01.840Z,101818
2017-06-14T12:50:30.011Z,101822
2017-06-14T12:52:58.185Z,101828
2017-06-14T12:55:26.373Z,101822
2017-06-14T12:57:55.312Z,101823
2017-06-14T13:00:23.489Z,101833
2017-06-14T13:02:51.688Z,101820
2017-06-14T13:05:19.847Z,101831
2017-06-14T13:07:48.033Z,101824
2017-06-14T13:10:16.214Z,101821
2017-06-14T13:12:44.409Z,101827
2017-06-14T13:15:12.561Z,101826
2017-06-14T13:17:40.773Z,101825
2017-06-14T13:20:09.698Z,101823
2017-06-14T13:22:37.854Z,101826
2017-06-14T13:25:06.054Z,101829
2017-06-14T13:27:34.214Z,101830
2017-06-14T13:30:02.391Z,101827
2017-06-14T13:32:30.578Z,101823
2017-06-14T13:34:58.745Z,101823
2017-06-14T13:37:26.897Z,101824
2017-06-14T13:39:55.876Z,101823
2017-06-14T13:42:24.841Z,101827
2017-06-14T13:44:53.012Z,101825
2017-06-14T13:47:21.207Z,101821
2017-06-14T13:49:49.376Z,101823
2017-06-14T13:52:17.533Z,101821
2017-06-14T13:54:45.732Z,101820
2017-06-14T13:57:13.909Z,101818
2017-06-14T13:59:42.058Z,101816
2017-06-14T14:02:10.243Z,101823
2017-06-14T14:04:38.416Z,101826
2017-06-14T14:07:06.571Z,101822
2017-06-14T14:09:34.758Z,101815
2017-06-14T14:12:02.921Z,101809
2017-06-14T14:14:31.078Z,101820
2017-06-14T14:16:59.288Z,101812
2017-06-14T14:19:27.439Z,101811
2017-06-14T14:21:55.648Z,101804
2017-06-14T14:24:23.840Z,101804
2017-06-14T14:26:52.006Z,101807
2017-06-14T14:29:20.161Z,101804
2017-06-14T14:31:48.361Z,101799
2017-06-14T14:34:16.533Z,101791
2017-06-14T14:36:44.690Z,101790
2017-06-14T14:39:12.893Z,101784
2017-06-14T14:41:41.067Z,101798
2017-06-14T14:44:09.228Z,101788
2017-06-14T14:46:37.438Z,101784
2017-06-14T14:49:05.589Z,101782
2017-06-14T14:51:33.760Z,101789
2017-06-14T14:54:01.942Z,101790
2017-06-14T14:56:30.108Z,101787
2017-06-14T14:58:58.270Z,101772
2017-06-14T15:01:27.217Z,101778
2017-06-14T15:03:55.371Z,101777
2017-06-14T15:06:23.561Z,101783
2017-06-14T15:08:51.768Z,101777
2017-06-14T15:11:19.940Z,101772
2017-06-14T15:13:48.114Z,101766
2017-06-14T15:16:16.314Z,101771
2017-06-14T15:18:44.485Z,101768
2017-06-14T15:21:13.420Z,101764
2017-06-14T15:23:41.597Z,101765
2017-06-14T15:26:09.774Z,101763
2017-06-14T15:28:37.957Z,101763
2017-06-14T15:31:06.142Z,101757
2017-06-14T15:33:34.302Z,101755
2017-06-14T15:36:02.472Z,101760
2017-06-14T15:38:30.661Z,101752
2017-06-14T15:40:58.832Z,101755
2017-06-14T15:43:27.004Z,101754
2017-06-14T15:45:55.205Z,101754
2017-06-14T15:48:24.163Z,101742
2017-06-14T15:50:52.310Z,101746
2017-06-14T15:53:20.504Z,101748
2017-06-14T15:55:48.658Z,101743
2017-06-14T15:58:16.813Z,101746
2017-06-14T16:00:45.776Z,101738
2017-06-14T16:03:13.948Z,101739
2017-06-14T16:05:42.125Z,101733
2017-06-14T16:08:10.311Z,101735
2017-06-14T16:10:38.485Z,101729
2017-06-14T16:13:06.642Z,101734
2017-06-14T16:15:34.850Z,101729
2017-06-14T16:18:03.001Z,101730
2017-06-14T16:20:31.159Z,101725
2017-06-14T16:22:59.352Z,101731
2017-06-14T16:25:28.274Z,101735
2017-06-14T16:27:56.424Z,101730
2017-06-14T16:30:25.453Z,101729
2017-06-14T16:32:53.610Z,101731
2017-06-14T16:35:21.780Z,101721
2017-06-14T16:37:49.961Z,101739
2017-06-14T16:40:18.148Z,101734
2017-06-14T16:42:46.305Z,101731
2017-06-14T16:45:14.486Z,101730
2017-06-14T16:47:42.658Z,101732
2017-06-14T16:50:10.802Z,101723
2017-06-14T16:52:38.996Z,101724
2017-06-14T16:55:07.142Z,101721
2017-06-14T16:57:35.306Z,101726
2017-06-14T17:00:03.480Z,101715
2017-06-14T17:02:31.637Z,101721
2017-06-14T17:04:59.798Z,101719
2017-06-14T17:07:28.484Z,101719
2017-06-14T17:09:56.757Z,101719
2017-06-14T17:12:24.922Z,101718
2017-06-14T17:14:53.102Z,101727
2017-06-14T17:17:21.267Z,101722
2017-06-14T17:19:49.427Z,101722
2017-06-14T17:22:18.394Z,101719
2017-06-14T17:24:46.547Z,101724
2017-06-14T17:27:14.712Z,101715
2017-06-14T17:29:42.894Z,101713
2017-06-14T17:32:11.063Z,101715
2017-06-14T17:34:39.230Z,101714
2017-06-14T17:37:07.920Z,101713
2017-06-14T17:39:36.780Z,101715
2017-06-14T17:42:04.957Z,101718
2017-06-14T17:44:33.200Z,101707
2017-06-14T17:47:02.159Z,101705
2017-06-14T17:49:30.334Z,101707
2017-06-14T17:51:58.532Z,101716
2017-06-14T17:54:26.702Z,101715
2017-06-14T17:56:54.862Z,101710
2017-06-14T17:59:23.056Z,101707
2017-06-14T18:01:51.236Z,101720
2017-06-14T18:04:19.461Z,101707
2017-06-14T18:06:47.645Z,101708
2017-06-14T18:09:15.867Z,101707
2017-06-14T18:11:44.083Z,101717
2017-06-14T18:14:12.285Z,101704
2017-06-14T18:16:40.438Z,101703
2017-06-14T18:19:08.612Z,101701
2017-06-14T18:21:36.910Z,101699
2017-06-14T18:24:05.086Z,101696
2017-06-14T18:26:33.259Z,101700
2017-06-14T18:29:01.485Z,101685
2017-06-14T18:31:30.415Z,101699
2017-06-14T18:33:58.696Z,101701
2017-06-14T18:36:26.933Z,101697
2017-06-14T18:38:55.850Z,101694
2017-06-14T18:41:24.028Z,101686
2017-06-14T18:43:52.230Z,101691
2017-06-14T18:46:20.391Z,101689
2017-06-14T18:48:48.539Z,101688
2017-06-14T18:51:16.750Z,101687
2017-06-14T18:53:44.920Z,101685
2017-06-14T18:56:13.073Z,101682
2017-06-14T18:58:41.362Z,101683
2017-06-14T19:01:09.514Z,101682
2017-06-14T19:03:37.667Z,101678
2017-06-14T19:06:06.624Z,101679
2017-06-14T19:08:34.822Z,101685
2017-06-14T19:11:03.008Z,101680
2017-06-14T19:13:31.950Z,101676
2017-06-14T19:16:00.169Z,101678
2017-06-14T19:18:29.089Z,101678
2017-06-14T19:21:02.882Z,101681
2017-06-14T19:23:31.046Z,101682
2017-06-14T19:25:59.977Z,101679
2017-06-14T19:28:28.195Z,101681
2017-06-14T19:30:56.409Z,101686
2017-06-14T19:33:24.614Z,101684
2017-06-14T19:35:53.017Z,101683
2017-06-14T19:38:21.208Z,101689
2017-06-14T19:40:49.385Z,101689
2017-06-14T19:43:17.596Z,101681
2017-06-14T19:45:45.748Z,101683
2017-06-14T19:48:14.712Z,101694
2017-06-14T19:50:42.941Z,101694
2017-06-14T19:53:11.133Z,101690
2017-06-14T19:55:39.348Z,101692
2017-06-14T19:58:07.526Z,101695
2017-06-14T20:00:35.682Z,101689
2017-06-14T20:03:03.882Z,101691
2017-06-14T20:05:32.243Z,101683
2017-06-14T20:08:00.472Z,101683
2017-06-14T20:10:28.634Z,101687
2017-06-14T20:12:56.837Z,101682
2017-06-14T20:15:24.982Z,101680
2017-06-14T20:17:53.130Z,101678
2017-06-14T20:20:21.328Z,101679
2017-06-14T20:22:49.477Z,101689
2017-06-14T20:25:17.639Z,101682
2017-06-14T20:27:45.823Z,101688
2017-06-14T20:30:13.991Z,101686
2017-06-14T20:32:42.141Z,101693
2017-06-14T20:35:11.112Z,101681
2017-06-14T20:37:39.290Z,101682
2017-06-14T20:40:07.445Z,101686
2017-06-14T20:42:35.621Z,101684
2017-06-14T20:45:03.772Z,101681
2017-06-14T20:47:31.945Z,101684
2017-06-14T20:50:00.160Z,101674
2017-06-14T20:52:28.342Z,101677
2017-06-14T20:54:56.501Z,101683
2017-06-14T20:57:24.712Z,101685
2017-06-14T20:59:52.889Z,101686
2017-06-14T21:02:21.848Z,101693
2017-06-14T21:04:50.146Z,101687
2017-06-14T21:07:19.147Z,101682
2017-06-14T21:09:48.077Z,101689
2017-06-14T21:12:16.359Z,101685
2017-06-14T21:14:44.545Z,101683
2017-06-14T21:17:12.718Z,101690
2017-06-14T21:19:40.974Z,101682
2017-06-14T21:22:09.177Z,101687
2017-06-14T21:24:37.435Z,101689
2017-06-14T21:27:05.622Z,101679
2017-06-14T21:29:33.806Z,101681
2017-06-14T21:32:02.003Z,101679
2017-06-14T21:34:30.195Z,101690
2017-06-14T21:36:59.160Z,101687
2017-06-14T21:39:27.425Z,101692
2017-06-14T21:41:55.649Z,101687
2017-06-14T21:44:24.600Z,101690
2017-06-14T21:46:52.772Z,101692
2017-06-14T21:49:20.994Z,101701
2017-06-14T21:51:49.929Z,101702
2017-06-14T21:54:18.103Z,101692
2017-06-14T21:56:46.306Z,101683
2017-06-14T21:59:14.497Z,101685
2017-06-14T22:01:43.444Z,101686
2017-06-14T22:04:11.634Z,101688
2017-06-14T22:06:39.802Z,101685
2017-06-14T22:09:07.958Z,101684
2017-06-14T22:11:36.161Z,101690
2017-06-14T22:14:04.331Z,101692
2017-06-14T22:16:32.567Z,101690
2017-06-14T22:19:02.479Z,101687
2017-06-14T22:21:30.630Z,101689
2017-06-14T22:23:58.807Z,101693
2017-06-14T22:26:27.025Z,101699
2017-06-14T22:28:55.202Z,101691
2017-06-14T22:31:23.356Z,101690
2017-06-14T22:33:51.563Z,101692
2017-06-14T22:36:19.722Z,101704
2017-06-14T22:38:47.901Z,101704
2017-06-14T22:41:16.797Z,101709
2017-06-14T22:43:44.971Z,101708
2017-06-14T22:46:13.121Z,101717
2017-06-14T22:48:41.309Z,101715
2017-06-14T22:51:09.481Z,101714
2017-06-14T22:53:37.633Z,101719
2017-06-14T22:56:05.829Z,101712
2017-06-14T22:58:34.024Z,101711
2017-06-14T23:01:02.198Z,101707
2017-06-14T23:03:30.394Z,101702
2017-06-14T23:05:58.568Z,101702
2017-06-14T23:08:27.514Z,101699
2017-06-14T23:10:55.705Z,101694
2017-06-14T23:13:23.858Z,101707
2017-06-14T23:15:52.029Z,101706
2017-06-14T23:18:20.222Z,101719
2017-06-14T23:20:48.365Z,101708
2017-06-14T23:23:16.519Z,101713
2017-06-14T23:25:44.708Z,101705
2017-06-14T23:28:13.342Z,101703
2017-06-14T23:30:41.544Z,101702
2017-06-14T23:33:09.757Z,101713
2017-06-14T23:35:38.399Z,101724
2017-06-14T23:38:06.604Z,101718
2017-06-14T23:40:34.808Z,101712
2017-06-14T23:43:02.978Z,101716
2017-06-14T23:45:31.148Z,101716
2017-06-14T23:47:59.339Z,101723
2017-06-14T23:50:28.320Z,101721
2017-06-14T23:52:56.495Z,101716
2017-06-14T23:55:24.691Z,101715
2017-06-14T23:57:53.623Z,101705
